Time;durP1;ratioP1;P1;durP2;ratioP2;P2;SDS_P1;SDS_P2;PMS_P1;PMS_P2;Temp;Humidity;BMP_temperature;BMP_pressure;BME280_temperature;BME280_humidity;BME280_pressure;Samples;Min_cycle;Max_cycle;Signal;HPM_P1;HPM_P2
2022/07/09 00:01:26;;;;;;;9.73;5.27;;;;;;;18.16;79.45;102751.75;5289232;28;20040;-76
2022/07/09 00:03:57;;;;;;;11.60;5.57;;;;;;;18.31;78.53;102750.78;5287081;28;20608;-76
2022/07/09 00:06:29;;;;;;;6.97;4.83;;;;;;;18.28;78.97;102761.59;5289422;28;20812;-76
2022/07/09 00:09:00;;;;;;;10.20;5.27;;;;;;;17.82;81.81;102744.88;5288104;28;20088;-76
2022/07/09 00:11:32;;;;;;;13.80;6.60;;;;;;;18.11;80.03;102760.81;5288856;28;20032;-76
2022/07/09 00:14:03;;;;;;;15.63;5.73;;;;;;;18.04;81.30;102763.94;5288116;28;20119;-76
2022/07/09 00:16:34;;;;;;;13.50;5.63;;;;;;;18.19;79.60;102762.16;5288149;28;20063;-76
2022/07/09 00:19:06;;;;;;;7.00;5.43;;;;;;;18.16;79.66;102749.09;5288857;28;20032;-76
2022/07/09 00:21:37;;;;;;;11.73;5.80;;;;;;;17.93;81.86;102752.19;5269648;28;20079;-76
2022/07/09 00:24:08;;;;;;;7.40;5.20;;;;;;;18.06;81.00;102751.44;5288091;28;20102;-76
2022/07/09 00:26:40;;;;;;;10.37;5.80;;;;;;;18.09;80.46;102754.75;5289699;28;20028;-76
2022/07/09 00:29:11;;;;;;;10.70;5.90;;;;;;;18.00;81.20;102757.97;5304105;28;20050;-76
2022/07/09 00:31:42;;;;;;;12.50;5.47;;;;;;;17.70;83.46;102753.59;5289762;28;20028;-76
2022/07/09 00:34:14;;;;;;;14.77;5.60;;;;;;;17.75;83.90;102756.81;5302852;28;20039;-76
2022/07/09 00:36:45;;;;;;;9.07;5.97;;;;;;;17.71;84.17;102748.22;5287810;28;20051;-76
2022/07/09 00:39:16;;;;;;;13.77;7.00;;;;;;;17.85;82.80;102757.13;5287631;28;20062;-75
2022/07/09 00:41:47;;;;;;;13.03;6.43;;;;;;;17.84;82.77;102753.59;5288032;28;21583;-76
2022/07/09 00:44:19;;;;;;;13.87;6.27;;;;;;;17.55;85.89;102748.25;5305219;28;20047;-76
2022/07/09 00:46:50;;;;;;;11.77;6.10;;;;;;;17.82;83.13;102746.69;5287936;28;20079;-76
2022/07/09 00:49:22;;;;;;;10.43;6.33;;;;;;;17.64;84.44;102752.16;5267810;28;20142;-76
2022/07/09 00:51:53;;;;;;;11.43;6.23;;;;;;;17.70;84.01;102750.94;5275673;28;20093;-75
2022/07/09 00:54:25;;;;;;;11.57;6.40;;;;;;;17.55;85.14;102748.25;5289575;28;20042;-76
2022/07/09 00:56:57;;;;;;;10.87;7.00;;;;;;;17.56;84.81;102744.66;5288746;28;20521;-76
2022/07/09 00:59:28;;;;;;;10.43;6.67;;;;;;;17.52;85.41;102748.44;5288848;28;20028;-76
2022/07/09 01:02:01;;;;;;;9.07;6.07;;;;;;;17.57;84.58;102756.13;5289206;28;20057;-76
2022/07/09 01:04:32;;;;;;;14.03;7.47;;;;;;;17.53;85.24;102755.44;5290856;28;20073;-76
2022/07/09 01:07:04;;;;;;;12.00;6.70;;;;;;;17.44;85.67;102745.41;5292543;28;20055;-76
2022/07/09 01:09:35;;;;;;;9.17;7.17;;;;;;;17.47;85.37;102747.88;5291623;28;20031;-76
2022/07/09 01:12:07;;;;;;;9.23;7.23;;;;;;;17.24;87.17;102742.13;5292933;28;20048;-76
2022/07/09 01:14:38;;;;;;;11.17;7.90;;;;;;;17.39;86.41;102733.28;5293289;28;20036;-76
2022/07/09 01:17:09;;;;;;;8.63;6.90;;;;;;;17.45;86.25;102742.66;5290448;28;20108;-76
2022/07/09 01:19:41;;;;;;;10.97;7.70;;;;;;;17.33;86.71;102732.78;5272872;28;20082;-76
2022/07/09 01:22:12;;;;;;;15.13;8.30;;;;;;;17.46;86.03;102730.25;5271817;28;20029;-76
2022/07/09 01:24:43;;;;;;;13.30;7.60;;;;;;;17.40;86.49;102726.19;5272879;28;20029;-76
2022/07/09 01:27:14;;;;;;;12.57;7.77;;;;;;;17.30;86.52;102723.22;5282082;28;20016;-76
2022/07/09 01:29:49;;;;;;;19.70;8.97;;;;;;;17.03;89.85;102721.22;5292220;28;20089;-76
2022/07/09 01:32:20;;;;;;;12.60;8.03;;;;;;;17.23;89.00;102705.97;5291454;28;20111;-76
2022/07/09 01:34:51;;;;;;;10.47;8.67;;;;;;;17.24;89.09;102715.66;5291965;28;20169;-76
2022/07/09 01:37:23;;;;;;;11.57;8.80;;;;;;;16.95;91.57;102712.88;5291457;28;20725;-76
2022/07/09 01:39:54;;;;;;;11.43;8.57;;;;;;;17.30;88.94;102707.34;5274348;28;20032;-76
2022/07/09 01:42:25;;;;;;;13.60;8.50;;;;;;;17.28;89.22;102711.84;5291639;28;20070;-76
2022/07/09 01:44:57;;;;;;;11.53;8.03;;;;;;;17.20;89.33;102703.53;5282449;28;20033;-76
2022/07/09 01:47:28;;;;;;;10.77;8.43;;;;;;;17.23;89.42;102703.34;5276977;28;20020;-76
2022/07/09 01:49:59;;;;;;;11.33;7.53;;;;;;;17.27;88.58;102707.53;5291791;28;20028;-76
2022/07/09 01:52:30;;;;;;;9.67;7.97;;;;;;;17.04;89.79;102699.09;5276165;28;20471;-76
2022/07/09 01:55:03;;;;;;;12.47;7.83;;;;;;;17.13;89.44;102698.59;5291336;28;20028;-76
2022/07/09 01:57:34;;;;;;;11.43;7.80;;;;;;;17.18;89.00;102708.91;5279958;28;20060;-76
2022/07/09 02:00:07;;;;;;;14.87;8.20;;;;;;;17.06;89.38;102699.88;5292012;28;20067;-76
2022/07/09 02:02:39;;;;;;;11.20;8.37;;;;;;;16.88;90.64;102696.47;5290536;28;20419;-77
2022/07/09 02:05:11;;;;;;;10.90;8.57;;;;;;;16.88;91.47;102701.75;5290156;28;20035;-77
2022/07/09 02:07:42;;;;;;;12.30;7.97;;;;;;;16.91;90.20;102694.50;5284113;28;20040;-76
2022/07/09 02:10:14;;;;;;;12.30;8.87;;;;;;;16.66;91.70;102693.28;5271070;28;20029;-77
2022/07/09 02:12:45;;;;;;;12.40;8.70;;;;;;;16.65;91.15;102677.50;5287041;28;20094;-76
2022/07/09 02:15:16;;;;;;;9.17;7.70;;;;;;;16.87;90.57;102700.94;5306112;28;20459;-76
2022/07/09 02:17:48;;;;;;;12.67;8.33;;;;;;;16.83;90.47;102687.94;5290729;28;20032;-76
2022/07/09 02:20:19;;;;;;;11.07;8.07;;;;;;;16.71;90.93;102694.78;5291806;28;20024;-76
2022/07/09 02:22:50;;;;;;;10.67;8.23;;;;;;;16.68;91.28;102694.06;5289855;28;20034;-76
2022/07/09 02:25:22;;;;;;;12.33;8.17;;;;;;;16.63;91.44;102692.59;5291529;28;20492;-76
2022/07/09 02:27:53;;;;;;;10.57;8.27;;;;;;;16.74;90.30;102686.72;5290633;28;20156;-76
2022/07/09 02:30:24;;;;;;;11.17;7.40;;;;;;;16.69;90.32;102686.94;5294153;28;20586;-77
2022/07/09 02:32:56;;;;;;;12.93;8.03;;;;;;;16.43;92.43;102682.19;5290467;28;20028;-76
2022/07/09 02:35:27;;;;;;;14.57;9.10;;;;;;;16.59;91.70;102691.06;5291079;28;20032;-76
2022/07/09 02:37:58;;;;;;;12.60;9.30;;;;;;;16.60;91.27;102685.66;5287736;28;20024;-77
2022/07/09 02:40:29;;;;;;;14.03;8.87;;;;;;;16.52;90.71;102674.69;5271214;28;20498;-76
2022/07/09 02:43:01;;;;;;;12.03;8.53;;;;;;;16.62;90.70;102689.09;5270090;28;20098;-76
2022/07/09 02:45:32;;;;;;;11.77;8.03;;;;;;;16.55;90.72;102685.06;5288420;28;20441;-77
2022/07/09 02:48:03;;;;;;;11.60;7.63;;;;;;;16.62;90.01;102683.81;5285679;28;20505;-77
2022/07/09 02:50:35;;;;;;;10.70;8.00;;;;;;;16.37;91.90;102677.22;5288384;28;20518;-77
2022/07/09 02:53:06;;;;;;;11.67;8.97;;;;;;;16.39;91.56;102675.34;5274920;28;20051;-77
2022/07/09 02:55:37;;;;;;;11.87;9.27;;;;;;;16.42;91.16;102669.91;5286695;28;20028;-77
2022/07/09 02:58:08;;;;;;;13.20;9.43;;;;;;;16.40;91.25;102663.88;5289029;28;20024;-76
2022/07/09 03:00:40;;;;;;;11.23;10.03;;;;;;;16.44;92.11;102673.31;5306020;28;20606;-76
2022/07/09 03:03:12;;;;;;;10.30;8.37;;;;;;;16.29;91.64;102663.59;5288799;28;20518;-76
2022/07/09 03:05:43;;;;;;;12.43;9.70;;;;;;;16.42;91.27;102667.25;5290782;28;20040;-77
2022/07/09 03:08:14;;;;;;;13.63;9.70;;;;;;;16.30;91.89;102670.59;5292888;28;20037;-76
2022/07/09 03:10:46;;;;;;;12.27;10.10;;;;;;;16.18;92.83;102657.09;5287732;28;20485;-76
2022/07/09 03:13:17;;;;;;;15.27;10.13;;;;;;;16.31;91.82;102667.88;5290289;28;20036;-76
2022/07/09 03:15:49;;;;;;;12.70;11.40;;;;;;;16.06;93.33;102668.34;5290077;28;20043;-77
2022/07/09 03:18:20;;;;;;;14.70;11.80;;;;;;;16.28;92.64;102672.47;5287560;28;20032;-77
2022/07/09 03:20:51;;;;;;;17.73;12.70;;;;;;;16.11;94.39;102670.75;5290833;28;20101;-76
2022/07/09 03:23:23;;;;;;;15.77;14.03;;;;;;;15.85;100.00;102661.47;5273934;28;20029;-76
2022/07/09 03:25:54;;;;;;;20.83;15.50;;;;;;;16.21;99.32;102656.09;5270259;28;20028;-77
2022/07/09 03:28:25;;;;;;;20.03;17.07;;;;;;;16.22;100.00;102657.78;5270018;28;20411;-77
2022/07/09 03:30:57;;;;;;;19.33;16.87;;;;;;;16.12;100.00;102656.59;5302891;28;20067;-77
2022/07/09 03:33:28;;;;;;;20.57;16.07;;;;;;;16.05;100.00;102656.06;5282606;28;20029;-76
2022/07/09 03:35:59;;;;;;;18.87;16.90;;;;;;;16.01;100.00;102665.97;5280369;28;20031;-76
2022/07/09 03:38:31;;;;;;;20.03;16.60;;;;;;;16.07;100.00;102670.06;5288837;28;20028;-76
2022/07/09 03:41:02;;;;;;;22.90;16.87;;;;;;;16.06;100.00;102663.91;5277576;28;20024;-77
2022/07/09 03:43:33;;;;;;;19.33;16.57;;;;;;;16.08;100.00;102669.13;5285994;28;20059;-76
2022/07/09 03:46:05;;;;;;;22.13;16.73;;;;;;;15.86;100.00;102672.91;5288439;28;20031;-76
2022/07/09 03:48:36;;;;;;;22.80;17.37;;;;;;;15.94;100.00;102675.13;5288473;28;20024;-77
2022/07/09 03:51:07;;;;;;;21.50;17.73;;;;;;;15.57;100.00;102684.06;5289003;28;20020;-76
2022/07/09 03:53:39;;;;;;;20.93;18.43;;;;;;;15.86;100.00;102675.53;5290167;28;20029;-76
2022/07/09 03:56:10;;;;;;;19.90;17.80;;;;;;;15.91;100.00;102676.16;5290424;28;20074;-76
2022/07/09 03:58:43;;;;;;;20.70;18.23;;;;;;;15.91;100.00;102675.28;5287913;28;20016;-76
2022/07/09 04:01:14;;;;;;;21.90;19.63;;;;;;;15.87;100.00;102660.53;5289183;28;20032;-77
2022/07/09 04:03:45;;;;;;;22.63;20.27;;;;;;;15.97;100.00;102664.38;5303952;28;20466;-77
2022/07/09 04:06:17;;;;;;;24.63;21.70;;;;;;;15.95;100.00;102666.28;5289468;28;20406;-77
2022/07/09 04:08:48;;;;;;;27.53;21.33;;;;;;;15.96;100.00;102660.91;5284585;28;20035;-76
2022/07/09 04:11:19;;;;;;;26.13;20.57;;;;;;;16.06;100.00;102665.69;5289295;28;20035;-70
2022/07/09 04:13:51;;;;;;;24.17;21.67;;;;;;;16.02;100.00;102661.53;5289229;28;20025;-72
2022/07/09 04:16:22;;;;;;;24.37;21.77;;;;;;;15.85;100.00;102655.31;5288904;28;20024;-73
2022/07/09 04:18:53;;;;;;;29.43;21.80;;;;;;;16.09;100.00;102673.50;5288690;28;20032;-72
2022/07/09 04:21:25;;;;;;;28.40;23.73;;;;;;;16.00;100.00;102666.03;5288794;28;20024;-78
2022/07/09 04:23:56;;;;;;;27.37;23.63;;;;;;;16.01;100.00;102665.09;5291939;28;20103;-76
2022/07/09 04:26:27;;;;;;;29.23;23.90;;;;;;;16.00;100.00;102661.63;5277042;28;20038;-79
2022/07/09 04:28:59;;;;;;;27.13;23.73;;;;;;;16.02;100.00;102659.75;5269395;28;20056;-79
2022/07/09 04:31:30;;;;;;;29.17;24.53;;;;;;;15.95;100.00;102645.97;5273032;28;20447;-79
2022/07/09 04:34:01;;;;;;;27.77;24.70;;;;;;;15.95;100.00;102653.88;5290074;28;20020;-80
2022/07/09 04:36:33;;;;;;;32.33;26.97;;;;;;;15.96;100.00;102650.34;5290398;28;20035;-80
2022/07/09 04:39:04;;;;;;;30.73;26.23;;;;;;;15.95;100.00;102650.41;5293118;28;20024;-80
2022/07/09 04:41:36;;;;;;;30.67;26.67;;;;;;;15.91;100.00;102649.72;5292793;28;20035;-80
2022/07/09 04:44:08;;;;;;;32.10;27.20;;;;;;;15.94;100.00;102654.84;5287016;28;20138;-79
2022/07/09 04:46:39;;;;;;;30.77;27.47;;;;;;;15.95;100.00;102645.13;5280096;28;20119;-80
2022/07/09 04:49:11;;;;;;;31.30;27.90;;;;;;;16.10;100.00;102646.09;5283522;28;20028;-79
2022/07/09 04:51:42;;;;;;;31.87;28.70;;;;;;;16.10;100.00;102651.41;5281158;28;20081;-80
2022/07/09 04:54:13;;;;;;;32.67;29.13;;;;;;;16.09;100.00;102647.06;5273837;28;20511;-80
2022/07/09 04:56:44;;;;;;;32.67;29.37;;;;;;;15.99;100.00;102645.81;5288210;28;20094;-80
2022/07/09 04:59:16;;;;;;;33.67;30.27;;;;;;;16.15;100.00;102646.72;5273763;28;20024;-80
2022/07/09 05:01:49;;;;;;;33.67;30.23;;;;;;;16.22;100.00;102655.16;5286309;28;20111;-80
2022/07/09 05:04:21;;;;;;;33.07;29.53;;;;;;;16.18;100.00;102640.41;5289757;28;20024;-80
2022/07/09 05:06:52;;;;;;;32.63;29.23;;;;;;;16.20;100.00;102649.94;5276060;28;20805;-80
2022/07/09 05:09:23;;;;;;;34.17;30.73;;;;;;;16.15;100.00;102630.00;5281174;28;20107;-80
2022/07/09 05:11:54;;;;;;;35.13;30.67;;;;;;;16.23;100.00;102632.22;5293682;28;20393;-80
2022/07/09 05:14:26;;;;;;;33.83;30.47;;;;;;;16.29;100.00;102639.78;5290850;28;20031;-79
2022/07/09 05:16:57;;;;;;;38.23;33.10;;;;;;;16.32;100.00;102639.63;5290449;28;20039;-80
2022/07/09 05:19:28;;;;;;;35.13;31.43;;;;;;;16.36;100.00;102635.88;5292829;28;20032;-79
2022/07/09 05:22:00;;;;;;;37.13;32.30;;;;;;;16.39;100.00;102643.63;5290653;28;20028;-78
2022/07/09 05:24:32;;;;;;;37.57;33.67;;;;;;;16.49;100.00;102643.97;5286925;28;20038;-79
2022/07/09 05:27:04;;;;;;;38.57;34.17;;;;;;;16.52;100.00;102651.75;5275017;28;20036;-79
2022/07/09 05:29:36;;;;;;;38.07;34.27;;;;;;;16.51;100.00;102647.38;5293864;28;20020;-79
2022/07/09 05:32:08;;;;;;;36.77;32.97;;;;;;;16.54;100.00;102641.06;5292481;28;20107;-79
2022/07/09 05:34:39;;;;;;;38.63;32.43;;;;;;;16.65;100.00;102632.53;5286705;28;20111;-79
2022/07/09 05:37:11;;;;;;;38.43;30.13;;;;;;;16.64;100.00;102639.59;5282190;28;20387;-78
2022/07/09 05:39:42;;;;;;;35.60;31.97;;;;;;;16.66;100.00;102640.38;5283338;28;20027;-79
2022/07/09 05:42:13;;;;;;;35.50;31.90;;;;;;;16.69;100.00;102653.41;5292687;28;20028;-78
2022/07/09 05:44:44;;;;;;;37.97;31.90;;;;;;;16.76;100.00;102650.41;5291548;28;20036;-78
2022/07/09 05:47:16;;;;;;;37.40;32.17;;;;;;;16.69;100.00;102644.63;5291944;28;20032;-79
2022/07/09 05:49:47;;;;;;;35.63;31.93;;;;;;;16.75;100.00;102640.78;5290809;28;20028;-78
2022/07/09 05:52:19;;;;;;;35.57;31.77;;;;;;;16.50;100.00;102594.56;5291069;28;20057;-78
2022/07/09 05:54:50;;;;;;;36.60;32.80;;;;;;;16.79;100.00;102634.38;5286995;28;20033;-79
2022/07/09 05:57:21;;;;;;;35.93;31.83;;;;;;;16.87;100.00;102637.44;5284940;28;20035;-79
2022/07/09 05:59:53;;;;;;;37.37;32.43;;;;;;;16.99;100.00;102638.50;5289790;28;20028;-79
2022/07/09 06:02:24;;;;;;;31.57;28.33;;;;;;;17.00;100.00;102642.00;5291516;28;20036;-78
2022/07/09 06:04:55;;;;;;;30.03;26.67;;;;;;;17.00;100.00;102631.41;5292114;28;20490;-78
2022/07/09 06:07:26;;;;;;;29.80;26.63;;;;;;;17.07;100.00;102643.31;5291682;28;20064;-79
2022/07/09 06:09:58;;;;;;;32.57;27.90;;;;;;;17.11;100.00;102646.69;5291419;28;20531;-79
2022/07/09 06:12:29;;;;;;;27.77;24.97;;;;;;;17.04;100.00;102636.44;5291905;28;20047;-79
2022/07/09 06:15:01;;;;;;;26.30;23.60;;;;;;;17.16;100.00;102637.53;5286983;28;20032;-79
2022/07/09 06:17:32;;;;;;;27.93;23.87;;;;;;;17.20;100.00;102637.34;5290154;28;20023;-78
2022/07/09 06:20:05;;;;;;;28.67;25.63;;;;;;;17.35;100.00;102641.72;5291713;28;20142;-77
2022/07/09 06:22:38;;;;;;;28.63;25.53;;;;;;;17.42;100.00;102640.41;5289030;28;20378;-78
2022/07/09 06:25:10;;;;;;;29.50;26.00;;;;;;;17.52;100.00;102642.50;5291122;28;20305;-79
2022/07/09 06:27:42;;;;;;;29.77;26.53;;;;;;;17.58;100.00;102630.66;5292753;28;20495;-78
2022/07/09 06:30:13;;;;;;;28.50;25.67;;;;;;;17.68;100.00;102638.91;5291781;28;20032;-77
2022/07/09 06:32:45;;;;;;;27.37;24.43;;;;;;;17.74;100.00;102643.81;5288707;28;20047;-77
2022/07/09 06:35:16;;;;;;;27.77;24.73;;;;;;;17.78;100.00;102642.69;5291124;28;20123;-78
2022/07/09 06:37:47;;;;;;;27.40;24.47;;;;;;;17.80;100.00;102638.16;5290057;28;20564;-77
2022/07/09 06:40:18;;;;;;;25.67;23.10;;;;;;;17.80;100.00;102640.78;5289355;28;20622;-78
2022/07/09 06:42:50;;;;;;;27.07;23.77;;;;;;;17.92;100.00;102654.22;5293305;28;20075;-78
2022/07/09 06:45:21;;;;;;;25.93;23.30;;;;;;;17.98;100.00;102656.47;5290992;28;20730;-78
2022/07/09 06:47:55;;;;;;;25.37;22.93;;;;;;;18.06;100.00;102646.25;5289839;28;20493;-78
2022/07/09 06:50:26;;;;;;;24.35;21.63;;;;;;;18.12;100.00;102645.84;5306594;28;20032;-76
2022/07/09 06:52:57;;;;;;;29.23;23.33;;;;;;;18.26;100.00;102657.41;5286825;28;20455;-78
2022/07/09 06:55:29;;;;;;;24.20;21.77;;;;;;;18.27;100.00;102645.88;5283645;28;20036;-77
2022/07/09 06:58:00;;;;;;;25.17;22.57;;;;;;;18.31;100.00;102647.34;5288977;28;20032;-78
2022/07/09 07:00:33;;;;;;;25.33;22.60;;;;;;;18.43;100.00;102637.75;5270096;28;20115;-78
2022/07/09 07:03:05;;;;;;;24.73;22.27;;;;;;;18.59;100.00;102637.59;5274018;28;20031;-79
2022/07/09 07:05:36;;;;;;;26.43;23.27;;;;;;;18.90;100.00;102648.00;5290272;28;20035;-78
2022/07/09 07:08:07;;;;;;;24.43;21.93;;;;;;;19.03;100.00;102650.66;5288699;28;20020;-78
2022/07/09 07:10:39;;;;;;;25.27;22.27;;;;;;;19.23;100.00;102661.78;5291751;28;20035;-78
2022/07/09 07:13:10;;;;;;;26.00;23.50;;;;;;;19.34;100.00;102648.59;5286318;28;20879;-78
2022/07/09 07:15:42;;;;;;;26.83;21.47;;;;;;;19.37;100.00;102652.00;5296566;28;20391;-78
2022/07/09 07:18:13;;;;;;;24.93;21.27;;;;;;;19.43;100.00;102648.91;5289258;28;20027;-79
2022/07/09 07:20:45;;;;;;;24.17;21.50;;;;;;;19.51;100.00;102662.53;5288917;28;20142;-78
2022/07/09 07:23:16;;;;;;;23.37;20.97;;;;;;;19.74;100.00;102638.78;5289424;28;20089;-79
2022/07/09 07:25:47;;;;;;;22.40;20.03;;;;;;;20.27;95.87;102645.69;5289870;28;20085;-78
2022/07/09 07:28:19;;;;;;;22.92;20.52;;;;;;;20.76;94.84;102651.00;5288777;28;20032;-78
2022/07/09 07:30:50;;;;;;;21.45;18.85;;;;;;;21.13;88.53;102641.19;5289137;28;20320;-81
2022/07/09 07:33:21;;;;;;;18.58;16.38;;;;;;;21.61;84.99;102652.63;5280672;28;20089;-87
2022/07/09 07:35:52;;;;;;;17.17;14.45;;;;;;;21.70;84.07;102649.22;5283386;28;20040;-87
2022/07/09 07:38:27;;;;;;;20.67;15.18;;;;;;;21.74;81.73;102653.38;5289948;28;20060;-88
2022/07/09 07:40:58;;;;;;;17.77;14.75;;;;;;;22.32;81.49;102642.63;5290185;28;20031;-87
2022/07/09 07:43:29;;;;;;;20.00;15.07;;;;;;;22.60;75.99;102643.00;5289979;28;20028;-87
2022/07/09 07:46:01;;;;;;;16.63;14.15;;;;;;;22.76;74.72;102641.75;5286298;28;20067;-84
2022/07/09 07:48:32;;;;;;;19.05;14.10;;;;;;;22.48;76.09;102648.38;5289173;28;20100;-86
2022/07/09 07:51:04;;;;;;;21.55;15.63;;;;;;;22.45;76.69;102651.28;5284221;28;20028;-85
2022/07/09 07:53:35;;;;;;;15.50;13.93;;;;;;;22.45;76.95;102648.63;5288148;28;20094;-84
2022/07/09 07:56:07;;;;;;;24.40;17.08;;;;;;;22.41;76.15;102655.19;5279477;28;20082;-85
2022/07/09 07:58:38;;;;;;;23.75;14.93;;;;;;;22.44;75.48;102652.28;5288855;28;20901;-76
2022/07/09 08:01:10;;;;;;;19.42;16.30;;;;;;;22.62;75.53;102648.25;5286770;28;20459;-88
2022/07/09 08:03:41;;;;;;;16.70;14.90;;;;;;;22.85;75.01;102654.28;5288870;28;20085;-87
2022/07/09 08:06:12;;;;;;;18.30;16.23;;;;;;;22.69;73.88;102646.75;5288399;28;20105;-85
2022/07/09 08:08:43;;;;;;;18.30;16.38;;;;;;;22.66;75.81;102650.50;5277320;28;20040;-85
2022/07/09 08:11:15;;;;;;;20.98;14.93;;;;;;;22.42;75.05;102640.88;5269180;28;20059;-85
2022/07/09 08:13:46;;;;;;;22.33;16.85;;;;;;;22.32;75.71;102642.63;5283765;28;20027;-84
2022/07/09 08:16:18;;;;;;;22.70;15.82;;;;;;;22.23;76.35;102629.06;5290039;28;20040;-83
2022/07/09 08:18:50;;;;;;;18.38;16.58;;;;;;;22.34;75.98;102635.34;5293680;28;20031;-85
2022/07/09 08:21:21;;;;;;;20.00;16.13;;;;;;;22.68;77.37;102635.22;5291546;28;20028;-84
2022/07/09 08:23:53;;;;;;;20.02;17.60;;;;;;;22.93;74.93;102633.16;5273592;28;20058;-84
2022/07/09 08:26:26;;;;;;;22.10;18.52;;;;;;;23.12;71.70;102615.53;5286138;28;20054;-85
2022/07/09 08:28:58;;;;;;;17.65;15.93;;;;;;;23.30;69.91;102617.59;5280809;28;20462;-86
2022/07/09 08:31:29;;;;;;;19.58;16.27;;;;;;;23.71;71.60;102611.41;5290848;28;20028;-86
2022/07/09 08:34:00;;;;;;;17.63;15.75;;;;;;;23.84;67.41;102617.38;5291212;28;20031;-86
2022/07/09 08:36:32;;;;;;;19.45;16.75;;;;;;;23.18;70.00;102623.00;5286240;28;20036;-85
2022/07/09 08:39:03;;;;;;;16.65;14.95;;;;;;;23.25;68.20;102612.63;5290862;28;20028;-86
2022/07/09 08:41:34;;;;;;;17.58;15.43;;;;;;;23.19;71.05;102603.34;5289438;28;20198;-85
2022/07/09 08:44:10;;;;;;;19.55;16.33;;;;;;;23.95;67.25;102607.53;5278217;28;20475;-86
2022/07/09 08:46:42;;;;;;;17.73;13.07;;;;;;;24.29;66.21;102600.00;5286034;28;20033;-82
2022/07/09 08:49:15;;;;;;;17.52;12.57;;;;;;;24.45;65.63;102592.38;5276636;28;20028;-82
2022/07/09 08:51:47;;;;;;;;;;;;;;;25.21;66.28;102603.22;5291327;28;20028;-82
2022/07/09 08:54:20;;;;;;;16.27;13.85;;;;;;;24.88;60.89;102601.75;5291934;28;19926;-82
2022/07/09 08:56:51;;;;;;;18.02;12.73;;;;;;;24.95;60.02;102591.31;5291413;28;20032;-82
2022/07/09 08:59:23;;;;;;;17.92;13.18;;;;;;;24.85;59.51;102588.66;5292991;28;20039;-82
2022/07/09 09:01:54;;;;;;;14.73;11.70;;;;;;;24.64;62.39;102607.59;5274489;28;20497;-82
2022/07/09 09:04:26;;;;;;;15.07;11.75;;;;;;;24.39;60.31;102599.13;5292064;28;20042;-81
2022/07/09 09:06:57;;;;;;;17.52;13.00;;;;;;;24.04;62.99;102601.34;5290618;28;20075;-80
2022/07/09 09:09:34;;;;;;;23.38;12.70;;;;;;;24.67;61.36;102587.69;5291508;28;20036;-81
2022/07/09 09:12:06;;;;;;;15.02;10.63;;;;;;;24.77;62.84;102601.91;5291389;28;20070;-80
2022/07/09 09:14:37;;;;;;;14.32;12.10;;;;;;;24.65;60.50;102599.41;5293359;28;20032;-79
2022/07/09 09:17:11;;;;;;;171.35;21.88;;;;;;;24.49;61.38;102605.34;5290613;28;20035;-84
2022/07/09 09:19:43;;;;;;;52.00;13.32;;;;;;;24.14;65.24;102602.19;5294754;28;20493;-78
2022/07/09 09:22:16;;;;;;;19.00;11.52;;;;;;;24.19;62.36;102587.59;5289090;28;20039;-77
2022/07/09 09:24:51;;;;;;;13.43;11.15;;;;;;;24.09;63.46;102588.38;5287309;28;20734;-77
2022/07/09 09:27:30;;;;;;;17.30;11.93;;;;;;;23.83;63.34;102596.94;5288728;28;20401;-78
2022/07/09 09:30:02;;;;;;;13.15;10.95;;;;;;;23.77;63.60;102595.66;5291530;28;20382;-78
2022/07/09 09:32:34;;;;;;;11.27;10.18;;;;;;;23.86;64.19;102594.00;5292694;28;20024;-78
2022/07/09 09:35:05;;;;;;;11.65;10.25;;;;;;;23.60;67.02;102593.66;5292533;28;20035;-77
2022/07/09 09:37:37;;;;;;;13.68;12.27;;;;;;;23.53;66.17;102601.38;5308972;28;20043;-78
2022/07/09 09:40:10;;;;;;;15.05;11.73;;;;;;;23.36;65.88;102595.66;5294900;28;20474;-78
2022/07/09 09:42:42;;;;;;;17.42;11.95;;;;;;;23.96;66.42;102593.16;5308873;28;20031;-78
2022/07/09 09:45:14;;;;;;;15.07;11.95;;;;;;;24.11;64.94;102577.53;5292943;28;20251;-78
2022/07/09 09:47:48;;;;;;;16.17;11.70;;;;;;;24.24;64.25;102588.00;5292164;28;20328;-78
2022/07/09 09:50:21;;;;;;;12.98;10.82;;;;;;;24.07;64.66;102579.66;5292552;28;20020;-78
2022/07/09 09:52:54;;;;;;;14.88;10.73;;;;;;;23.86;66.39;102593.16;5293504;28;20031;-77
2022/07/09 09:55:26;;;;;;;13.13;11.90;;;;;;;23.78;65.62;102585.81;5290868;28;20027;-78
2022/07/09 09:57:57;;;;;;;14.80;11.18;;;;;;;23.34;68.67;102578.91;5291006;28;20458;-78
2022/07/09 10:00:29;;;;;;;17.92;11.93;;;;;;;23.33;68.80;102593.25;5293147;28;20032;-78
2022/07/09 10:03:01;;;;;;;15.95;11.10;;;;;;;23.30;69.95;102589.00;5291568;28;20127;-78
2022/07/09 10:05:33;;;;;;;12.93;11.25;;;;;;;23.06;72.56;102597.34;5292600;28;20115;-78
2022/07/09 10:08:04;;;;;;;15.90;11.07;;;;;;;22.94;70.23;102581.41;5290489;28;20016;-76
2022/07/09 10:10:36;;;;;;;14.13;11.57;;;;;;;22.78;71.40;102589.03;5280844;28;20028;-77
2022/07/09 10:13:07;;;;;;;14.13;11.68;;;;;;;22.75;72.62;102600.81;5295891;28;20376;-79
2022/07/09 10:15:48;;;;;;;14.45;8.98;;;;;;;23.13;70.28;102582.47;5290802;28;20115;-78
2022/07/09 10:18:20;;;;;;;12.48;8.68;;;;;;;23.31;67.32;102597.88;5288451;28;20052;-79
2022/07/09 10:20:56;;;;;;;11.00;8.10;;;;;;;23.12;71.42;102591.47;5283481;28;20037;-77
2022/07/09 10:23:27;;;;;;;11.13;7.13;;;;;;;23.44;69.22;102589.69;5279530;28;20497;-78
2022/07/09 10:25:59;;;;;;;14.38;6.80;;;;;;;23.67;69.52;102579.59;5277158;28;20028;-78
2022/07/09 10:28:40;;;;;;;38.05;11.07;;;;;;;24.44;66.41;102580.81;5276280;28;20043;-80
2022/07/09 10:31:17;;;;;;;11.65;5.38;;;;;;;24.41;65.26;102575.75;5289915;28;20039;-86
2022/07/09 10:34:00;;;;;;;12.88;5.95;;;;;;;24.15;65.31;102587.00;5291319;28;20409;-75
2022/07/09 10:36:31;;;;;;;10.53;5.23;;;;;;;24.04;64.31;102579.94;5282764;28;20131;-71
2022/07/09 10:39:11;;;;;;;7.85;4.88;;;;;;;24.40;63.42;102582.94;5278410;28;20110;-71
2022/07/09 10:41:43;;;;;;;7.32;4.25;;;;;;;24.31;64.05;102586.47;5284721;28;20939;-72
2022/07/09 10:44:26;;;;;;;8.25;4.60;;;;;;;24.51;63.85;102575.72;5281253;28;20039;-84
2022/07/09 10:46:57;;;;;;;7.35;3.72;;;;;;;24.40;62.37;102576.75;5278021;28;20040;-85
2022/07/09 10:49:29;;;;;;;8.02;3.83;;;;;;;24.60;61.80;102574.88;5281738;28;20027;-78
2022/07/09 10:52:01;;;;;;;8.27;4.00;;;;;;;25.62;59.27;102571.53;5285468;28;20032;-82
2022/07/09 10:54:32;;;;;;;8.70;3.50;;;;;;;25.49;58.04;102571.06;5280040;28;20032;-84
2022/07/09 10:57:04;;;;;;;6.32;3.33;;;;;;;25.90;54.56;102576.06;5291242;28;20044;-85
2022/07/09 10:59:36;;;;;;;9.32;2.22;;;;;;;25.72;53.26;102568.00;5277548;28;20044;-83
2022/07/09 11:02:20;;;;;;;6.00;2.38;;;;;;;26.16;51.45;102563.72;5289105;28;20089;-82
2022/07/09 11:04:52;;;;;;;6.07;2.33;;;;;;;26.40;51.06;102567.63;5287700;28;20448;-77
2022/07/09 11:07:25;;;;;;;4.22;2.35;;;;;;;26.28;50.67;102580.41;5270146;28;20089;-78
2022/07/09 11:09:56;;;;;;;7.63;2.90;;;;;;;26.50;49.58;102570.19;5291350;28;20042;-81
2022/07/09 11:12:28;;;;;;;4.88;2.30;;;;;;;26.48;50.20;102582.97;5291453;28;20277;-82
2022/07/09 11:14:59;;;;;;;6.03;2.08;;;;;;;26.69;49.36;102578.06;5291256;28;20127;-82
2022/07/09 11:17:30;;;;;;;4.28;1.98;;;;;;;26.56;49.42;102586.56;5305791;28;20035;-82
2022/07/09 11:20:02;;;;;;;4.65;2.22;;;;;;;26.39;49.27;102585.56;5288493;28;20072;-80
2022/07/09 11:22:34;;;;;;;3.75;2.15;;;;;;;26.58;48.46;102584.53;5295845;28;20051;-82
2022/07/09 11:25:07;;;;;;;4.60;1.80;;;;;;;26.63;48.81;102580.53;5288537;28;20024;-77
2022/07/09 11:27:42;;;;;;;5.05;1.85;;;;;;;26.75;48.69;102581.97;5288203;28;20064;-76
2022/07/09 11:30:14;;;;;;;3.47;1.85;;;;;;;26.60;49.03;102581.69;5287959;28;20577;-79
2022/07/09 11:32:46;;;;;;;5.90;1.75;;;;;;;27.24;47.61;102583.25;5271965;28;20586;-69